Terminal Aerodrome Forecast
Issued by NWS

Home | Current Version | Previous Version | Text Only | Print | Product List | Glossary Off
Versions: 1 2 3 4 5 6 7 8 9 10 11 12 13 14 15 16

000
FTUS43 KICT 222320
TAFSLN
TAF
KSLN 222320Z 2300/2324 17012G20KT P6SM SKC
     FM230300 18010KT P6SM SKC
     FM231000 17008KT P6SM SKC WS017/20035KT
     FM231600 19014G24KT P6SM SKC=

USA.gov is the U.S. government's official web portal to all federal, state and local government web resources and services.